To NAV CANADA Home Page Login to a new session Search on AWWS site Feedback and Comments Disclaimer Vers la page française équivalente Tips FAQ What's new on the site To the Forecasts and Observations / NOTAM section To "File a Flight Plan" website Publications and other links Update of the User's profile FIC Telephone Numbers My Weather Data Folder Route Weather Data Regional Weather Data Local Weather Data To the Forecasts and Observations / NOTAM section
Request Generated 03/30/2015 at 16:11:32 UTC . Weather information available at that time is displayed.

METAR/TAF

MARYS HARBOUR/NL    (show WxCam)

METAR CYMH 301600Z AUTO 22019G27KT 9SM SCT160 03/M06 A2978 RMK
SLP085=
METAR CYMH 301500Z AUTO 23018G26KT 9SM CLR 03/M06 A2979 RMK SLP087=
METAR CYMH 301400Z AUTO 23014G27KT 9SM CLR 01/M06 A2980 RMK SLP093=

TAF CYMH 301338Z 3014/3102 23015G25KT P6SM BKN150
BECMG 3100/3102 21012G22KT
RMK FCST BASED ON AUTO OBS. NXT FCST BY 302000Z=
Your time UTC time
Weather data provided by Environment Canada and NAV CANADA